SBI7520 ZWTN-UTAA
Flight info
| Callsign | SBI7520 |
|---|---|
| Flight time | 3h 54m |
| Altitude | 36000 |
| Route | ZWTN N0448F360 VIDU8Z VIDUT W112 PURPA G206 TAPIS P173 DAVET B475 NINOP A125 KEMOR KEM11A UGMUR CI11R RW11R UTAA |
| Aircraft | B738/M-SDGIWZ/S |
Departure
| Time | 2026-05-05 05:10 |
|---|---|
| Airport | Hotan Airport (ZWTN) |
Arrival
| Time | 2026-05-05 09:04 |
|---|---|
| Airport | Ashgabat International Airport (UTAA) |
| Time | Latitude | Longitude | Altitude | Speed | Heading |
|---|---|---|---|---|---|
| 2026-05-05 04:37 | 37.03918 | 79.87250 | 4680 ft | 0 kts | 290° |
| 2026-05-05 05:06 | 37.03913 | 79.87222 | 4680 ft | 6 kts | 224° |
| 2026-05-05 05:07 | 37.03846 | 79.87168 | 4680 ft | 16 kts | 225° |
| 2026-05-05 05:07 | 37.03772 | 79.87212 | 4680 ft | 18 kts | 108° |
| 2026-05-05 05:07 | 37.03721 | 79.87409 | 4680 ft | 27 kts | 110° |
| 2026-05-05 05:07 | 37.03654 | 79.87650 | 4680 ft | 31 kts | 109° |
| 2026-05-05 05:08 | 37.03579 | 79.87919 | 4680 ft | 33 kts | 108° |
| 2026-05-05 05:08 | 37.03453 | 79.88097 | 4680 ft | 26 kts | 185° |
| 2026-05-05 05:08 | 37.03377 | 79.87964 | 4680 ft | 19 kts | 289° |
| 2026-05-05 05:08 | 37.03423 | 79.87805 | 4680 ft | 25 kts | 291° |
| 2026-05-05 05:09 | 37.03566 | 79.87318 | 4680 ft | 91 kts | 290° |
| 2026-05-05 05:09 | 37.03853 | 79.86343 | 4680 ft | 145 kts | 290° |
| 2026-05-05 05:09 | 37.04257 | 79.84984 | 4751 ft | 181 kts | 291° |
| 2026-05-05 05:09 | 37.04694 | 79.83440 | 5132 ft | 193 kts | 289° |
| 2026-05-05 05:10 | 37.05168 | 79.81904 | 5792 ft | 190 kts | 295° |
| 2026-05-05 05:10 | 37.05750 | 79.80386 | 6208 ft | 202 kts | 304° |
| 2026-05-05 05:10 | 37.06909 | 79.79259 | 6229 ft | 228 kts | 344° |
| 2026-05-05 05:10 | 37.08519 | 79.79330 | 6506 ft | 245 kts | 17° |
| 2026-05-05 05:11 | 37.10060 | 79.80260 | 6979 ft | 254 kts | 38° |
| 2026-05-05 05:11 | 37.11062 | 79.82101 | 7419 ft | 263 kts | 74° |
| 2026-05-05 05:11 | 37.11204 | 79.84369 | 8080 ft | 263 kts | 89° |
| 2026-05-05 05:11 | 37.11272 | 79.86691 | 8545 ft | 275 kts | 84° |
| 2026-05-05 05:12 | 37.11445 | 79.89096 | 9089 ft | 285 kts | 84° |
| 2026-05-05 05:12 | 37.11636 | 79.91601 | 9670 ft | 291 kts | 84° |
| 2026-05-05 05:12 | 37.11835 | 79.94134 | 10313 ft | 295 kts | 83° |
| 2026-05-05 05:12 | 37.12043 | 79.96700 | 10940 ft | 298 kts | 83° |
| 2026-05-05 05:13 | 37.12253 | 79.99261 | 11563 ft | 301 kts | 83° |
| 2026-05-05 05:13 | 37.12467 | 80.01876 | 12180 ft | 304 kts | 83° |
| 2026-05-05 05:13 | 37.12686 | 80.04542 | 12778 ft | 307 kts | 83° |
| 2026-05-05 05:13 | 37.12904 | 80.07194 | 13356 ft | 309 kts | 83° |
| 2026-05-05 05:14 | 37.13124 | 80.09885 | 13921 ft | 312 kts | 83° |
| 2026-05-05 05:14 | 37.13346 | 80.12593 | 14470 ft | 315 kts | 83° |
| 2026-05-05 05:14 | 37.13568 | 80.15321 | 15000 ft | 318 kts | 83° |
| 2026-05-05 05:14 | 37.13790 | 80.18049 | 15516 ft | 320 kts | 83° |
| 2026-05-05 05:15 | 37.14017 | 80.20843 | 16024 ft | 323 kts | 83° |
| 2026-05-05 05:15 | 37.14244 | 80.23650 | 16517 ft | 325 kts | 82° |
| 2026-05-05 05:15 | 37.14472 | 80.26479 | 16997 ft | 328 kts | 82° |
| 2026-05-05 05:15 | 37.14699 | 80.29305 | 17462 ft | 331 kts | 82° |
| 2026-05-05 05:16 | 37.14931 | 80.32192 | 17917 ft | 333 kts | 82° |
| 2026-05-05 05:16 | 37.15163 | 80.35096 | 18364 ft | 336 kts | 82° |
| 2026-05-05 05:16 | 37.15393 | 80.37979 | 18790 ft | 338 kts | 82° |
| 2026-05-05 05:16 | 37.15631 | 80.40942 | 19220 ft | 340 kts | 82° |
| 2026-05-05 05:17 | 37.15978 | 80.43884 | 19603 ft | 343 kts | 75° |
| 2026-05-05 05:17 | 37.16573 | 80.46803 | 19664 ft | 356 kts | 72° |
| 2026-05-05 05:17 | 37.17241 | 80.49854 | 19724 ft | 369 kts | 73° |
| 2026-05-05 05:17 | 37.17907 | 80.53020 | 19774 ft | 381 kts | 73° |
| 2026-05-05 05:18 | 37.18588 | 80.56263 | 19823 ft | 393 kts | 73° |
| 2026-05-05 05:18 | 37.19294 | 80.59597 | 19907 ft | 403 kts | 73° |
| 2026-05-05 05:18 | 37.20013 | 80.62985 | 20195 ft | 406 kts | 73° |
| 2026-05-05 05:18 | 37.20743 | 80.66433 | 20449 ft | 410 kts | 73° |
| 2026-05-05 05:19 | 37.21478 | 80.69907 | 20787 ft | 412 kts | 73° |
| 2026-05-05 05:19 | 37.22213 | 80.73385 | 21095 ft | 414 kts | 73° |
| 2026-05-05 05:19 | 37.22954 | 80.76891 | 21395 ft | 416 kts | 73° |
| 2026-05-05 05:19 | 37.23696 | 80.80409 | 21698 ft | 418 kts | 73° |
| 2026-05-05 05:20 | 37.24439 | 80.83935 | 21984 ft | 420 kts | 73° |
| 2026-05-05 05:20 | 37.25178 | 80.87450 | 22253 ft | 422 kts | 73° |
| 2026-05-05 05:20 | 37.25933 | 80.91038 | 22515 ft | 425 kts | 73° |
| 2026-05-05 05:20 | 37.26686 | 80.94627 | 22756 ft | 427 kts | 73° |
| 2026-05-05 05:21 | 37.27442 | 80.98238 | 22991 ft | 430 kts | 73° |
| 2026-05-05 05:21 | 37.28200 | 81.01859 | 23204 ft | 433 kts | 73° |
| 2026-05-05 05:21 | 37.28962 | 81.05506 | 23421 ft | 436 kts | 73° |
| 2026-05-05 05:21 | 37.29731 | 81.09198 | 23630 ft | 438 kts | 73° |
| 2026-05-05 05:22 | 37.30503 | 81.12907 | 23842 ft | 441 kts | 73° |
| 2026-05-05 05:22 | 37.31282 | 81.16655 | 24088 ft | 442 kts | 73° |
| 2026-05-05 05:22 | 37.32047 | 81.20348 | 24310 ft | 444 kts | 73° |
| 2026-05-05 05:22 | 37.32832 | 81.24137 | 24545 ft | 446 kts | 73° |
| 2026-05-05 05:23 | 37.33611 | 81.27908 | 24744 ft | 448 kts | 73° |
| 2026-05-05 05:23 | 37.34394 | 81.31699 | 24976 ft | 449 kts | 73° |
| 2026-05-05 05:23 | 37.35174 | 81.35488 | 25166 ft | 451 kts | 73° |
| 2026-05-05 05:23 | 37.35958 | 81.39297 | 25306 ft | 454 kts | 73° |
| 2026-05-05 05:24 | 37.36743 | 81.43125 | 25523 ft | 455 kts | 73° |
| 2026-05-05 05:24 | 37.37537 | 81.46997 | 25683 ft | 457 kts | 73° |
| 2026-05-05 05:24 | 37.38320 | 81.50830 | 25870 ft | 458 kts | 73° |
| 2026-05-05 05:24 | 37.39119 | 81.54741 | 26065 ft | 459 kts | 73° |
| 2026-05-05 05:25 | 37.39908 | 81.58617 | 26208 ft | 461 kts | 73° |
| 2026-05-05 05:25 | 37.40696 | 81.62492 | 26404 ft | 462 kts | 73° |
| 2026-05-05 05:25 | 37.41494 | 81.66415 | 26555 ft | 464 kts | 73° |
| 2026-05-05 05:25 | 37.42297 | 81.70349 | 26703 ft | 465 kts | 73° |
| 2026-05-05 05:26 | 37.43103 | 81.74297 | 26901 ft | 466 kts | 73° |
| 2026-05-05 05:26 | 37.43907 | 81.78250 | 27041 ft | 467 kts | 73° |
| 2026-05-05 05:26 | 37.44707 | 81.82210 | 27177 ft | 469 kts | 73° |
| 2026-05-05 05:26 | 37.45499 | 81.86185 | 27323 ft | 470 kts | 74° |
| 2026-05-05 05:27 | 37.46286 | 81.90166 | 27444 ft | 471 kts | 74° |
| 2026-05-05 05:27 | 37.47079 | 81.94173 | 27592 ft | 472 kts | 74° |
| 2026-05-05 05:27 | 37.48673 | 82.02193 | 27880 ft | 474 kts | 74° |
| 2026-05-05 05:28 | 37.49470 | 82.06198 | 28022 ft | 475 kts | 74° |
| 2026-05-05 05:28 | 37.50266 | 82.10216 | 28117 ft | 477 kts | 74° |
| 2026-05-05 05:28 | 37.51068 | 82.14269 | 28277 ft | 477 kts | 73° |
| 2026-05-05 05:28 | 37.51870 | 82.18309 | 28380 ft | 478 kts | 73° |
| 2026-05-05 05:29 | 37.52676 | 82.22367 | 28519 ft | 479 kts | 73° |
| 2026-05-05 05:29 | 37.53473 | 82.26396 | 28639 ft | 480 kts | 73° |
| 2026-05-05 05:29 | 37.55083 | 82.34573 | 28877 ft | 481 kts | 73° |
| 2026-05-05 05:30 | 37.56688 | 82.42780 | 29114 ft | 482 kts | 73° |
| 2026-05-05 05:30 | 37.58290 | 82.50982 | 29318 ft | 484 kts | 73° |
| 2026-05-05 05:31 | 37.59901 | 82.59220 | 29494 ft | 487 kts | 73° |
| 2026-05-05 05:31 | 37.60709 | 82.63370 | 29605 ft | 487 kts | 74° |
| 2026-05-05 05:31 | 37.61508 | 82.67494 | 29746 ft | 487 kts | 74° |
| 2026-05-05 05:32 | 37.63093 | 82.75777 | 29932 ft | 488 kts | 74° |
| 2026-05-05 05:32 | 37.64673 | 82.84052 | 30137 ft | 488 kts | 75° |
| 2026-05-05 05:33 | 37.66277 | 82.92394 | 30322 ft | 489 kts | 75° |
| 2026-05-05 05:33 | 37.67888 | 83.00729 | 30543 ft | 490 kts | 75° |
| 2026-05-05 05:34 | 37.69802 | 83.08955 | 30776 ft | 487 kts | 66° |
| 2026-05-05 05:34 | 37.71222 | 83.12755 | 30902 ft | 484 kts | 57° |
| 2026-05-05 05:34 | 37.73122 | 83.16297 | 31006 ft | 480 kts | 48° |
| 2026-05-05 05:35 | 37.75265 | 83.19485 | 31216 ft | 476 kts | 44° |
| 2026-05-05 05:35 | 37.77602 | 83.22394 | 31290 ft | 474 kts | 36° |
| 2026-05-05 05:35 | 37.80307 | 83.24701 | 31377 ft | 467 kts | 24° |
| 2026-05-05 05:35 | 37.83149 | 83.26533 | 31648 ft | 462 kts | 22° |
| 2026-05-05 05:36 | 37.89129 | 83.29329 | 31769 ft | 454 kts | 4° |
| 2026-05-05 05:36 | 37.92221 | 83.29645 | 31979 ft | 448 kts | 358° |
| 2026-05-05 05:36 | 37.95320 | 83.29803 | 32116 ft | 446 kts | 356° |
| 2026-05-05 05:37 | 38.01353 | 83.28790 | 32227 ft | 437 kts | 336° |
| 2026-05-05 05:37 | 38.04160 | 83.27446 | 32464 ft | 433 kts | 335° |
| 2026-05-05 05:37 | 38.06966 | 83.25994 | 32529 ft | 432 kts | 331° |
| 2026-05-05 05:38 | 38.09554 | 83.24148 | 32574 ft | 428 kts | 320° |
| 2026-05-05 05:38 | 38.11800 | 83.21681 | 32721 ft | 424 kts | 314° |
| 2026-05-05 05:38 | 38.13907 | 83.19122 | 32853 ft | 423 kts | 313° |
| 2026-05-05 05:38 | 38.15895 | 83.16397 | 32900 ft | 422 kts | 306° |
| 2026-05-05 05:39 | 38.17464 | 83.13287 | 32962 ft | 419 kts | 294° |
| 2026-05-05 05:39 | 38.18677 | 83.09946 | 33139 ft | 417 kts | 293° |
| 2026-05-05 05:39 | 38.20644 | 83.03065 | 33267 ft | 417 kts | 279° |
| 2026-05-05 05:40 | 38.20924 | 82.99377 | 33368 ft | 416 kts | 273° |
| 2026-05-05 05:40 | 38.21055 | 82.95737 | 33497 ft | 415 kts | 272° |
| 2026-05-05 05:40 | 38.20457 | 82.88457 | 33643 ft | 418 kts | 255° |
| 2026-05-05 05:41 | 38.19523 | 82.84951 | 33750 ft | 419 kts | 253° |
| 2026-05-05 05:41 | 38.18532 | 82.81522 | 33810 ft | 420 kts | 250° |
| 2026-05-05 05:41 | 38.17203 | 82.78206 | 33861 ft | 425 kts | 239° |
| 2026-05-05 05:41 | 38.15441 | 82.75365 | 33964 ft | 427 kts | 232° |
| 2026-05-05 05:42 | 38.11416 | 82.69851 | 34124 ft | 430 kts | 225° |
| 2026-05-05 05:42 | 38.08935 | 82.67643 | 34189 ft | 437 kts | 212° |
| 2026-05-05 05:42 | 38.06261 | 82.65900 | 34303 ft | 436 kts | 213° |
| 2026-05-05 05:43 | 38.01158 | 82.61798 | 34445 ft | 433 kts | 217° |
| 2026-05-05 05:43 | 37.96108 | 82.57747 | 34562 ft | 435 kts | 216° |
| 2026-05-05 05:44 | 37.90963 | 82.53734 | 34703 ft | 435 kts | 216° |
| 2026-05-05 05:44 | 37.85842 | 82.49723 | 34830 ft | 435 kts | 216° |
| 2026-05-05 05:45 | 37.80695 | 82.45657 | 34956 ft | 435 kts | 216° |
| 2026-05-05 05:45 | 37.75563 | 82.41676 | 35105 ft | 435 kts | 215° |
| 2026-05-05 05:46 | 37.70435 | 82.37744 | 35225 ft | 434 kts | 216° |
| 2026-05-05 05:46 | 37.65294 | 82.33745 | 35363 ft | 433 kts | 216° |
| 2026-05-05 05:47 | 37.60287 | 82.29620 | 35518 ft | 431 kts | 220° |
| 2026-05-05 05:47 | 37.55830 | 82.24726 | 35652 ft | 424 kts | 232° |
| 2026-05-05 05:48 | 37.52382 | 82.18819 | 35792 ft | 419 kts | 240° |
| 2026-05-05 05:48 | 37.49608 | 82.12418 | 35964 ft | 415 kts | 249° |
| 2026-05-05 05:49 | 37.48029 | 82.05521 | 35975 ft | 411 kts | 267° |
| 2026-05-05 05:49 | 37.47418 | 81.98335 | 35966 ft | 415 kts | 261° |
| 2026-05-05 05:50 | 37.46245 | 81.91226 | 35966 ft | 417 kts | 259° |
| 2026-05-05 05:50 | 37.44981 | 81.84180 | 35965 ft | 415 kts | 259° |
| 2026-05-05 05:51 | 37.43636 | 81.77089 | 35966 ft | 416 kts | 258° |
| 2026-05-05 05:51 | 37.42244 | 81.70064 | 35965 ft | 416 kts | 258° |
| 2026-05-05 05:52 | 37.40824 | 81.63035 | 35966 ft | 415 kts | 258° |
| 2026-05-05 05:52 | 37.39415 | 81.56023 | 35967 ft | 416 kts | 258° |
| 2026-05-05 05:53 | 37.38009 | 81.48962 | 35965 ft | 418 kts | 258° |
| 2026-05-05 05:53 | 37.36578 | 81.41896 | 35966 ft | 416 kts | 258° |
| 2026-05-05 05:54 | 37.35126 | 81.34910 | 35965 ft | 415 kts | 257° |
| 2026-05-05 05:54 | 37.33684 | 81.27850 | 35965 ft | 416 kts | 257° |
| 2026-05-05 05:55 | 37.32252 | 81.20818 | 35967 ft | 417 kts | 257° |
| 2026-05-05 05:55 | 37.30812 | 81.13773 | 35963 ft | 418 kts | 257° |
| 2026-05-05 05:56 | 37.29361 | 81.06745 | 35965 ft | 417 kts | 257° |
| 2026-05-05 05:56 | 37.27899 | 80.99735 | 35967 ft | 418 kts | 257° |
| 2026-05-05 05:57 | 37.26414 | 80.92645 | 35967 ft | 421 kts | 257° |
| 2026-05-05 05:57 | 37.24933 | 80.85534 | 35967 ft | 424 kts | 257° |
| 2026-05-05 05:58 | 37.23430 | 80.78437 | 35965 ft | 424 kts | 257° |
| 2026-05-05 05:58 | 37.21906 | 80.71307 | 35966 ft | 423 kts | 257° |
| 2026-05-05 05:59 | 37.20409 | 80.64211 | 35965 ft | 423 kts | 257° |
| 2026-05-05 05:59 | 37.18905 | 80.57098 | 35966 ft | 422 kts | 257° |
| 2026-05-05 06:00 | 37.17361 | 80.49993 | 35968 ft | 423 kts | 257° |
| 2026-05-05 06:00 | 37.15816 | 80.42859 | 35964 ft | 424 kts | 257° |
| 2026-05-05 06:01 | 37.14318 | 80.35783 | 35966 ft | 423 kts | 257° |
| 2026-05-05 06:01 | 37.12804 | 80.28697 | 35966 ft | 422 kts | 257° |
| 2026-05-05 06:02 | 37.11251 | 80.21593 | 35967 ft | 422 kts | 256° |
| 2026-05-05 06:02 | 37.09691 | 80.14545 | 35968 ft | 421 kts | 256° |
| 2026-05-05 06:03 | 37.08169 | 80.07494 | 35964 ft | 420 kts | 257° |
| 2026-05-05 06:03 | 37.06683 | 80.00482 | 35964 ft | 417 kts | 257° |
| 2026-05-05 06:04 | 37.05153 | 79.93488 | 35965 ft | 415 kts | 257° |
| 2026-05-05 06:04 | 37.03918 | 79.86517 | 35962 ft | 413 kts | 266° |
| 2026-05-05 06:05 | 37.03742 | 79.79357 | 35963 ft | 413 kts | 270° |
| 2026-05-05 06:05 | 37.03715 | 79.72206 | 35966 ft | 410 kts | 271° |
| 2026-05-05 06:06 | 37.03707 | 79.65050 | 35965 ft | 412 kts | 271° |
| 2026-05-05 06:06 | 37.03604 | 79.57916 | 35967 ft | 414 kts | 269° |
| 2026-05-05 06:07 | 37.03445 | 79.50726 | 35966 ft | 411 kts | 270° |
| 2026-05-05 06:07 | 37.03444 | 79.43606 | 35970 ft | 411 kts | 271° |
| 2026-05-05 06:08 | 37.03382 | 79.36437 | 35969 ft | 412 kts | 270° |
| 2026-05-05 06:08 | 37.03292 | 79.29301 | 35966 ft | 412 kts | 270° |
| 2026-05-05 06:09 | 37.03260 | 79.22149 | 35933 ft | 413 kts | 271° |
| 2026-05-05 06:09 | 37.03299 | 79.14976 | 35941 ft | 411 kts | 270° |
| 2026-05-05 06:10 | 37.03267 | 79.07845 | 35936 ft | 413 kts | 270° |
| 2026-05-05 06:10 | 37.03139 | 79.00616 | 35939 ft | 414 kts | 270° |
| 2026-05-05 06:11 | 37.02983 | 78.93428 | 35938 ft | 416 kts | 270° |
| 2026-05-05 06:11 | 37.02880 | 78.86233 | 35938 ft | 415 kts | 270° |
| 2026-05-05 06:12 | 37.02809 | 78.78987 | 35936 ft | 414 kts | 271° |
| 2026-05-05 06:12 | 37.02807 | 78.71800 | 35938 ft | 415 kts | 271° |
| 2026-05-05 06:13 | 37.02789 | 78.64634 | 35941 ft | 416 kts | 270° |
| 2026-05-05 06:13 | 37.02707 | 78.57405 | 35938 ft | 414 kts | 270° |
| 2026-05-05 06:14 | 37.02594 | 78.50240 | 35940 ft | 415 kts | 270° |
| 2026-05-05 06:14 | 37.02433 | 78.42989 | 35942 ft | 415 kts | 269° |
| 2026-05-05 06:15 | 37.02272 | 78.35830 | 35937 ft | 415 kts | 270° |
| 2026-05-05 06:15 | 37.02248 | 78.28620 | 35936 ft | 414 kts | 270° |
| 2026-05-05 06:16 | 37.02169 | 78.21447 | 35940 ft | 414 kts | 269° |
| 2026-05-05 06:16 | 37.02064 | 78.14240 | 35940 ft | 415 kts | 270° |
| 2026-05-05 06:17 | 37.01968 | 78.07064 | 35939 ft | 414 kts | 270° |
| 2026-05-05 06:17 | 37.01852 | 77.99869 | 35938 ft | 413 kts | 269° |
| 2026-05-05 06:18 | 37.01698 | 77.92738 | 35943 ft | 414 kts | 269° |
| 2026-05-05 06:18 | 37.01543 | 77.85583 | 35939 ft | 412 kts | 269° |
| 2026-05-05 06:19 | 37.01389 | 77.78411 | 35940 ft | 414 kts | 269° |
| 2026-05-05 06:19 | 37.01253 | 77.71197 | 35937 ft | 414 kts | 269° |
| 2026-05-05 06:20 | 37.01089 | 77.64075 | 35941 ft | 412 kts | 270° |
| 2026-05-05 06:20 | 37.00950 | 77.56910 | 35938 ft | 413 kts | 269° |
| 2026-05-05 06:21 | 37.00789 | 77.49719 | 35938 ft | 415 kts | 270° |
| 2026-05-05 06:21 | 37.00632 | 77.42558 | 35939 ft | 411 kts | 269° |
| 2026-05-05 06:22 | 37.00484 | 77.35438 | 35941 ft | 411 kts | 270° |
| 2026-05-05 06:22 | 37.00314 | 77.28251 | 35940 ft | 413 kts | 269° |
| 2026-05-05 06:23 | 37.00117 | 77.21091 | 35938 ft | 412 kts | 269° |
| 2026-05-05 06:23 | 36.99903 | 77.13929 | 35939 ft | 413 kts | 268° |
| 2026-05-05 06:24 | 36.99639 | 77.06802 | 35940 ft | 410 kts | 268° |
| 2026-05-05 06:24 | 36.99371 | 76.99677 | 35941 ft | 412 kts | 269° |
| 2026-05-05 06:25 | 36.99179 | 76.92509 | 35937 ft | 414 kts | 269° |
| 2026-05-05 06:25 | 36.99066 | 76.85355 | 35938 ft | 413 kts | 269° |
| 2026-05-05 06:26 | 36.98935 | 76.78197 | 35940 ft | 413 kts | 269° |
| 2026-05-05 06:26 | 36.98728 | 76.71025 | 35938 ft | 413 kts | 268° |
| 2026-05-05 06:27 | 36.98432 | 76.60328 | 35941 ft | 412 kts | 269° |
| 2026-05-05 06:28 | 36.98220 | 76.53146 | 35939 ft | 413 kts | 269° |
| 2026-05-05 06:28 | 36.98002 | 76.46004 | 35939 ft | 412 kts | 269° |
| 2026-05-05 06:29 | 36.97781 | 76.38881 | 35940 ft | 414 kts | 268° |
| 2026-05-05 06:29 | 36.97551 | 76.31717 | 35938 ft | 413 kts | 268° |
| 2026-05-05 06:30 | 36.97322 | 76.24535 | 35939 ft | 412 kts | 268° |
| 2026-05-05 06:30 | 36.97099 | 76.17447 | 35939 ft | 411 kts | 268° |
| 2026-05-05 06:31 | 36.96865 | 76.10300 | 35939 ft | 413 kts | 268° |
| 2026-05-05 06:31 | 36.96606 | 76.03159 | 35937 ft | 411 kts | 268° |
| 2026-05-05 06:32 | 36.96356 | 75.96027 | 35939 ft | 411 kts | 268° |
| 2026-05-05 06:32 | 36.96097 | 75.88914 | 35940 ft | 413 kts | 268° |
| 2026-05-05 06:33 | 36.95831 | 75.81765 | 35938 ft | 411 kts | 268° |
| 2026-05-05 06:33 | 36.95583 | 75.74636 | 35939 ft | 410 kts | 268° |
| 2026-05-05 06:34 | 36.95325 | 75.67533 | 35939 ft | 412 kts | 268° |
| 2026-05-05 06:34 | 36.95053 | 75.60366 | 35939 ft | 412 kts | 268° |
| 2026-05-05 06:35 | 36.94784 | 75.53271 | 35937 ft | 411 kts | 268° |
| 2026-05-05 06:35 | 36.94498 | 75.46129 | 35939 ft | 412 kts | 268° |
| 2026-05-05 06:36 | 36.93319 | 75.39139 | 35942 ft | 415 kts | 252° |
| 2026-05-05 06:36 | 36.91240 | 75.32465 | 35939 ft | 414 kts | 251° |
| 2026-05-05 06:37 | 36.89213 | 75.25696 | 35940 ft | 415 kts | 251° |
| 2026-05-05 06:37 | 36.87140 | 75.19019 | 35939 ft | 414 kts | 250° |
| 2026-05-05 06:38 | 36.85008 | 75.12367 | 35940 ft | 415 kts | 250° |
| 2026-05-05 06:38 | 36.82861 | 75.05715 | 35939 ft | 415 kts | 250° |
| 2026-05-05 06:39 | 36.80710 | 74.99026 | 35937 ft | 414 kts | 250° |
| 2026-05-05 06:39 | 36.78599 | 74.92435 | 35937 ft | 411 kts | 250° |
| 2026-05-05 06:40 | 36.76478 | 74.85802 | 35941 ft | 412 kts | 250° |
| 2026-05-05 06:40 | 36.74321 | 74.79185 | 35940 ft | 414 kts | 250° |
| 2026-05-05 06:41 | 36.72144 | 74.72586 | 35938 ft | 411 kts | 250° |
| 2026-05-05 06:41 | 36.69987 | 74.65980 | 35940 ft | 413 kts | 250° |
| 2026-05-05 06:42 | 36.67858 | 74.59374 | 35937 ft | 413 kts | 250° |
| 2026-05-05 06:42 | 36.65721 | 74.52781 | 35938 ft | 412 kts | 250° |
| 2026-05-05 06:43 | 36.63547 | 74.46167 | 35940 ft | 414 kts | 250° |
| 2026-05-05 06:43 | 36.61339 | 74.39561 | 35950 ft | 415 kts | 249° |
| 2026-05-05 06:44 | 36.59119 | 74.32983 | 35977 ft | 413 kts | 249° |
| 2026-05-05 06:44 | 36.56926 | 74.26424 | 35999 ft | 412 kts | 249° |
| 2026-05-05 06:45 | 36.54744 | 74.19852 | 36014 ft | 412 kts | 249° |
| 2026-05-05 06:45 | 36.52590 | 74.13268 | 36018 ft | 413 kts | 250° |
| 2026-05-05 06:46 | 36.50437 | 74.06683 | 36021 ft | 411 kts | 250° |
| 2026-05-05 06:46 | 36.48267 | 74.00117 | 36021 ft | 413 kts | 249° |
| 2026-05-05 06:47 | 36.46080 | 73.93551 | 36020 ft | 415 kts | 249° |
| 2026-05-05 06:47 | 36.43881 | 73.86958 | 36020 ft | 412 kts | 249° |
| 2026-05-05 06:48 | 36.41650 | 73.80411 | 36020 ft | 412 kts | 249° |
| 2026-05-05 06:48 | 36.39417 | 73.73875 | 36020 ft | 412 kts | 249° |
| 2026-05-05 06:49 | 36.37188 | 73.67326 | 36020 ft | 414 kts | 249° |
| 2026-05-05 06:49 | 36.34942 | 73.60790 | 36022 ft | 413 kts | 249° |
| 2026-05-05 06:50 | 36.32753 | 73.54248 | 36022 ft | 411 kts | 250° |
| 2026-05-05 06:50 | 36.30573 | 73.47681 | 36017 ft | 413 kts | 249° |
| 2026-05-05 06:51 | 36.28329 | 73.41157 | 36018 ft | 412 kts | 249° |
| 2026-05-05 06:51 | 36.26059 | 73.34641 | 36021 ft | 412 kts | 248° |
| 2026-05-05 06:52 | 36.23862 | 73.28121 | 36019 ft | 412 kts | 249° |
| 2026-05-05 06:52 | 36.21635 | 73.21565 | 36020 ft | 413 kts | 249° |
| 2026-05-05 06:53 | 36.19413 | 73.15078 | 36023 ft | 412 kts | 249° |
| 2026-05-05 06:53 | 36.17178 | 73.08564 | 36031 ft | 411 kts | 249° |
| 2026-05-05 06:54 | 36.14930 | 73.02068 | 36038 ft | 412 kts | 249° |
| 2026-05-05 06:54 | 36.12665 | 72.95589 | 36040 ft | 412 kts | 249° |
| 2026-05-05 06:55 | 36.10434 | 72.89102 | 36039 ft | 410 kts | 249° |
| 2026-05-05 06:55 | 36.08214 | 72.82627 | 36042 ft | 410 kts | 249° |
| 2026-05-05 06:56 | 36.05962 | 72.76166 | 36044 ft | 410 kts | 249° |
| 2026-05-05 06:56 | 36.03699 | 72.69704 | 36046 ft | 409 kts | 249° |
| 2026-05-05 06:57 | 36.01456 | 72.63275 | 36048 ft | 411 kts | 249° |
| 2026-05-05 06:57 | 35.99186 | 72.56833 | 36046 ft | 410 kts | 249° |
| 2026-05-05 06:58 | 35.96891 | 72.50420 | 36048 ft | 410 kts | 249° |
| 2026-05-05 06:58 | 35.94622 | 72.43954 | 36049 ft | 409 kts | 250° |
| 2026-05-05 06:59 | 35.92393 | 72.37524 | 36048 ft | 411 kts | 249° |
| 2026-05-05 06:59 | 35.90097 | 72.31100 | 36047 ft | 410 kts | 249° |
| 2026-05-05 07:00 | 35.87822 | 72.24640 | 36047 ft | 411 kts | 249° |
| 2026-05-05 07:00 | 35.85528 | 72.18201 | 36047 ft | 411 kts | 248° |
| 2026-05-05 07:01 | 35.83233 | 72.11790 | 36046 ft | 409 kts | 249° |
| 2026-05-05 07:01 | 35.80980 | 72.05370 | 36048 ft | 411 kts | 249° |
| 2026-05-05 07:02 | 35.78710 | 71.98959 | 36046 ft | 411 kts | 249° |
| 2026-05-05 07:02 | 35.76416 | 71.92512 | 36047 ft | 410 kts | 249° |
| 2026-05-05 07:03 | 35.74139 | 71.86101 | 36048 ft | 409 kts | 249° |
| 2026-05-05 07:03 | 35.71850 | 71.79708 | 36047 ft | 410 kts | 249° |
| 2026-05-05 07:04 | 35.69558 | 71.73312 | 36047 ft | 412 kts | 249° |
| 2026-05-05 07:04 | 35.67251 | 71.66898 | 36046 ft | 411 kts | 249° |
| 2026-05-05 07:05 | 35.64917 | 71.60491 | 36047 ft | 410 kts | 249° |
| 2026-05-05 07:05 | 35.62562 | 71.54108 | 36047 ft | 411 kts | 249° |
| 2026-05-05 07:06 | 35.60005 | 71.47863 | 36048 ft | 413 kts | 243° |
| 2026-05-05 07:06 | 35.57104 | 71.41798 | 36048 ft | 413 kts | 243° |
| 2026-05-05 07:07 | 35.54283 | 71.35681 | 36048 ft | 412 kts | 244° |
| 2026-05-05 07:07 | 35.51467 | 71.29569 | 36047 ft | 412 kts | 243° |
| 2026-05-05 07:08 | 35.48642 | 71.23515 | 36047 ft | 413 kts | 243° |
| 2026-05-05 07:08 | 35.45789 | 71.17425 | 36047 ft | 412 kts | 243° |
| 2026-05-05 07:09 | 35.42932 | 71.11342 | 36047 ft | 412 kts | 243° |
| 2026-05-05 07:09 | 35.40065 | 71.05267 | 36048 ft | 413 kts | 243° |
| 2026-05-05 07:10 | 35.37203 | 70.99181 | 36033 ft | 412 kts | 243° |
| 2026-05-05 07:10 | 35.34380 | 70.93126 | 36020 ft | 410 kts | 244° |
| 2026-05-05 07:11 | 35.31555 | 70.87093 | 36021 ft | 411 kts | 244° |
| 2026-05-05 07:11 | 35.28715 | 70.81027 | 36018 ft | 411 kts | 244° |
| 2026-05-05 07:12 | 35.25903 | 70.75017 | 36019 ft | 409 kts | 244° |
| 2026-05-05 07:12 | 35.23063 | 70.68989 | 36019 ft | 410 kts | 244° |
| 2026-05-05 07:13 | 35.20166 | 70.63006 | 36022 ft | 410 kts | 244° |
| 2026-05-05 07:13 | 35.17294 | 70.57011 | 36020 ft | 409 kts | 244° |
| 2026-05-05 07:14 | 35.14448 | 70.51006 | 36021 ft | 411 kts | 245° |
| 2026-05-05 07:14 | 35.11603 | 70.44961 | 36017 ft | 411 kts | 244° |
| 2026-05-05 07:15 | 35.08786 | 70.38951 | 36019 ft | 408 kts | 246° |
| 2026-05-05 07:15 | 35.06101 | 70.32865 | 36021 ft | 410 kts | 246° |
| 2026-05-05 07:16 | 35.03399 | 70.26775 | 36020 ft | 409 kts | 245° |
| 2026-05-05 07:16 | 35.00676 | 70.20681 | 36020 ft | 407 kts | 245° |
| 2026-05-05 07:17 | 34.97987 | 70.14679 | 36021 ft | 405 kts | 246° |
| 2026-05-05 07:17 | 34.95290 | 70.08700 | 36020 ft | 404 kts | 245° |
| 2026-05-05 07:18 | 34.92569 | 70.02757 | 36020 ft | 401 kts | 245° |
| 2026-05-05 07:18 | 34.89827 | 69.96885 | 36020 ft | 399 kts | 245° |
| 2026-05-05 07:19 | 34.87101 | 69.91020 | 36020 ft | 398 kts | 245° |
| 2026-05-05 07:19 | 34.84403 | 69.85175 | 36020 ft | 397 kts | 246° |
| 2026-05-05 07:20 | 34.81717 | 69.79319 | 36021 ft | 398 kts | 245° |
| 2026-05-05 07:20 | 34.78998 | 69.73456 | 36021 ft | 399 kts | 245° |
| 2026-05-05 07:21 | 34.76276 | 69.67599 | 36020 ft | 397 kts | 245° |
| 2026-05-05 07:21 | 34.73567 | 69.61748 | 36020 ft | 397 kts | 245° |
| 2026-05-05 07:22 | 34.70880 | 69.55946 | 36019 ft | 397 kts | 245° |
| 2026-05-05 07:22 | 34.68169 | 69.50114 | 36020 ft | 398 kts | 245° |
| 2026-05-05 07:23 | 34.65432 | 69.44271 | 36019 ft | 397 kts | 245° |
| 2026-05-05 07:23 | 34.62699 | 69.38460 | 36020 ft | 397 kts | 245° |
| 2026-05-05 07:24 | 34.59963 | 69.32677 | 36018 ft | 398 kts | 245° |
| 2026-05-05 07:24 | 34.57251 | 69.26859 | 36019 ft | 397 kts | 246° |
| 2026-05-05 07:25 | 34.55365 | 69.20689 | 36020 ft | 388 kts | 262° |
| 2026-05-05 07:25 | 34.55117 | 69.14199 | 36020 ft | 386 kts | 277° |
| 2026-05-05 07:26 | 34.56433 | 69.07962 | 36020 ft | 386 kts | 293° |
| 2026-05-05 07:26 | 34.59281 | 69.02409 | 36019 ft | 390 kts | 303° |
| 2026-05-05 07:27 | 34.62469 | 68.97094 | 36019 ft | 391 kts | 302° |
| 2026-05-05 07:27 | 34.65609 | 68.91745 | 36019 ft | 392 kts | 302° |
| 2026-05-05 07:28 | 34.68786 | 68.86388 | 36020 ft | 393 kts | 303° |
| 2026-05-05 07:28 | 34.71980 | 68.81021 | 36020 ft | 392 kts | 303° |
| 2026-05-05 07:29 | 34.75189 | 68.75642 | 36020 ft | 393 kts | 303° |
| 2026-05-05 07:29 | 34.78363 | 68.70270 | 36018 ft | 392 kts | 303° |
| 2026-05-05 07:30 | 34.81553 | 68.64905 | 36019 ft | 392 kts | 303° |
| 2026-05-05 07:30 | 34.86334 | 68.56863 | 36018 ft | 391 kts | 303° |
| 2026-05-05 07:31 | 34.89502 | 68.51488 | 36020 ft | 392 kts | 303° |
| 2026-05-05 07:31 | 34.92653 | 68.46117 | 36020 ft | 392 kts | 303° |
| 2026-05-05 07:32 | 34.95844 | 68.40736 | 36020 ft | 392 kts | 303° |
| 2026-05-05 07:32 | 34.99001 | 68.35383 | 36019 ft | 392 kts | 303° |
| 2026-05-05 07:33 | 35.02158 | 68.29940 | 36020 ft | 391 kts | 303° |
| 2026-05-05 07:33 | 35.05310 | 68.24563 | 36020 ft | 392 kts | 303° |
| 2026-05-05 07:34 | 35.08422 | 68.19113 | 36019 ft | 391 kts | 302° |
| 2026-05-05 07:34 | 35.11492 | 68.13678 | 36020 ft | 391 kts | 302° |
| 2026-05-05 07:35 | 35.14586 | 68.08227 | 36020 ft | 392 kts | 302° |
| 2026-05-05 07:35 | 35.17694 | 68.02742 | 36020 ft | 391 kts | 302° |
| 2026-05-05 07:36 | 35.20766 | 67.97298 | 36019 ft | 391 kts | 302° |
| 2026-05-05 07:36 | 35.23835 | 67.91814 | 36020 ft | 391 kts | 302° |
| 2026-05-05 07:37 | 35.26886 | 67.86372 | 36020 ft | 391 kts | 302° |
| 2026-05-05 07:37 | 35.29968 | 67.80885 | 36020 ft | 391 kts | 302° |
| 2026-05-05 07:38 | 35.33083 | 67.75445 | 36020 ft | 392 kts | 303° |
| 2026-05-05 07:38 | 35.36183 | 67.70007 | 36019 ft | 392 kts | 303° |
| 2026-05-05 07:39 | 35.39304 | 67.64529 | 36020 ft | 391 kts | 303° |
| 2026-05-05 07:39 | 35.42411 | 67.59078 | 36020 ft | 391 kts | 303° |
| 2026-05-05 07:40 | 35.45503 | 67.53663 | 36020 ft | 392 kts | 303° |
| 2026-05-05 07:40 | 35.48617 | 67.48172 | 36020 ft | 391 kts | 303° |
| 2026-05-05 07:41 | 35.51689 | 67.42715 | 36020 ft | 392 kts | 302° |
| 2026-05-05 07:41 | 35.54774 | 67.37212 | 36019 ft | 391 kts | 302° |
| 2026-05-05 07:42 | 35.57884 | 67.31707 | 36020 ft | 391 kts | 302° |
| 2026-05-05 07:42 | 35.60965 | 67.26247 | 36019 ft | 390 kts | 302° |
| 2026-05-05 07:43 | 35.64048 | 67.20753 | 36021 ft | 391 kts | 302° |
| 2026-05-05 07:43 | 35.67139 | 67.15266 | 36019 ft | 391 kts | 302° |
| 2026-05-05 07:44 | 35.70213 | 67.09798 | 36019 ft | 389 kts | 302° |
| 2026-05-05 07:44 | 35.73249 | 67.04324 | 36019 ft | 390 kts | 301° |
| 2026-05-05 07:45 | 35.76322 | 66.98837 | 36020 ft | 390 kts | 301° |
| 2026-05-05 07:45 | 35.79383 | 66.93361 | 36019 ft | 388 kts | 301° |
| 2026-05-05 07:46 | 35.82422 | 66.87917 | 36020 ft | 389 kts | 301° |
| 2026-05-05 07:46 | 35.85525 | 66.82416 | 36020 ft | 390 kts | 301° |
| 2026-05-05 07:47 | 35.88586 | 66.76978 | 36019 ft | 389 kts | 301° |
| 2026-05-05 07:47 | 35.91627 | 66.71484 | 36020 ft | 389 kts | 301° |
| 2026-05-05 07:48 | 35.94691 | 66.65939 | 36021 ft | 391 kts | 301° |
| 2026-05-05 07:48 | 35.97762 | 66.60445 | 36018 ft | 389 kts | 301° |
| 2026-05-05 07:49 | 36.00819 | 66.54986 | 36021 ft | 389 kts | 301° |
| 2026-05-05 07:49 | 36.03866 | 66.49434 | 36020 ft | 390 kts | 301° |
| 2026-05-05 07:50 | 36.06914 | 66.43918 | 36020 ft | 390 kts | 301° |
| 2026-05-05 07:50 | 36.09975 | 66.38425 | 36019 ft | 390 kts | 301° |
| 2026-05-05 07:51 | 36.13002 | 66.32875 | 36019 ft | 390 kts | 300° |
| 2026-05-05 07:51 | 36.16021 | 66.27386 | 36020 ft | 389 kts | 301° |
| 2026-05-05 07:52 | 36.19102 | 66.21850 | 36020 ft | 389 kts | 301° |
| 2026-05-05 07:52 | 36.22144 | 66.16365 | 36020 ft | 389 kts | 301° |
| 2026-05-05 07:53 | 36.25183 | 66.10823 | 36020 ft | 389 kts | 300° |
| 2026-05-05 07:53 | 36.28179 | 66.05298 | 36020 ft | 388 kts | 301° |
| 2026-05-05 07:54 | 36.31200 | 65.99766 | 36021 ft | 389 kts | 301° |
| 2026-05-05 07:54 | 36.34243 | 65.94235 | 36019 ft | 390 kts | 301° |
| 2026-05-05 07:55 | 36.37271 | 65.88669 | 36012 ft | 388 kts | 301° |
| 2026-05-05 07:55 | 36.40260 | 65.83114 | 36001 ft | 388 kts | 300° |
| 2026-05-05 07:56 | 36.43220 | 65.77625 | 35987 ft | 389 kts | 301° |
| 2026-05-05 07:56 | 36.46220 | 65.72064 | 35972 ft | 388 kts | 301° |
| 2026-05-05 07:57 | 36.49225 | 65.66532 | 35965 ft | 390 kts | 301° |
| 2026-05-05 07:57 | 36.52252 | 65.60957 | 35966 ft | 389 kts | 301° |
| 2026-05-05 07:58 | 36.55269 | 65.55412 | 35966 ft | 389 kts | 301° |
| 2026-05-05 07:58 | 36.58271 | 65.49805 | 35964 ft | 388 kts | 300° |
| 2026-05-05 07:59 | 36.61232 | 65.44239 | 35967 ft | 388 kts | 300° |
| 2026-05-05 07:59 | 36.64218 | 65.38655 | 35965 ft | 389 kts | 301° |
| 2026-05-05 08:00 | 36.67229 | 65.33079 | 35966 ft | 390 kts | 300° |
| 2026-05-05 08:00 | 36.70243 | 65.27492 | 35965 ft | 389 kts | 300° |
| 2026-05-05 08:01 | 36.73235 | 65.21910 | 35966 ft | 389 kts | 300° |
| 2026-05-05 08:01 | 36.76226 | 65.16286 | 35965 ft | 388 kts | 300° |
| 2026-05-05 08:02 | 36.79160 | 65.10686 | 35966 ft | 388 kts | 300° |
| 2026-05-05 08:02 | 36.82128 | 65.05067 | 35965 ft | 388 kts | 300° |
| 2026-05-05 08:03 | 36.85082 | 64.99463 | 35966 ft | 388 kts | 300° |
| 2026-05-05 08:03 | 36.88045 | 64.93848 | 35965 ft | 389 kts | 300° |
| 2026-05-05 08:04 | 36.91031 | 64.88245 | 35966 ft | 390 kts | 300° |
| 2026-05-05 08:04 | 36.94022 | 64.82616 | 35964 ft | 388 kts | 298° |
| 2026-05-05 08:05 | 36.96394 | 64.76652 | 35966 ft | 384 kts | 287° |
| 2026-05-05 08:05 | 36.97966 | 64.70264 | 35966 ft | 385 kts | 285° |
| 2026-05-05 08:06 | 36.99597 | 64.63920 | 35966 ft | 385 kts | 285° |
| 2026-05-05 08:06 | 37.01176 | 64.57542 | 35965 ft | 385 kts | 285° |
| 2026-05-05 08:07 | 37.02705 | 64.51115 | 35966 ft | 387 kts | 285° |
| 2026-05-05 08:07 | 37.04265 | 64.44639 | 35964 ft | 387 kts | 285° |
| 2026-05-05 08:08 | 37.05824 | 64.38230 | 35964 ft | 388 kts | 285° |
| 2026-05-05 08:08 | 37.07351 | 64.31749 | 35967 ft | 390 kts | 284° |
| 2026-05-05 08:09 | 37.08870 | 64.25225 | 35965 ft | 391 kts | 284° |
| 2026-05-05 08:09 | 37.10410 | 64.18706 | 35966 ft | 391 kts | 284° |
| 2026-05-05 08:10 | 37.11948 | 64.12190 | 35965 ft | 392 kts | 285° |
| 2026-05-05 08:10 | 37.13496 | 64.05652 | 35965 ft | 392 kts | 285° |
| 2026-05-05 08:11 | 37.15031 | 63.99099 | 35937 ft | 392 kts | 285° |
| 2026-05-05 08:11 | 37.16563 | 63.92580 | 35939 ft | 391 kts | 285° |
| 2026-05-05 08:12 | 37.18090 | 63.86070 | 35939 ft | 392 kts | 285° |
| 2026-05-05 08:12 | 37.19608 | 63.79501 | 35935 ft | 392 kts | 285° |
| 2026-05-05 08:13 | 37.21124 | 63.72964 | 35928 ft | 391 kts | 285° |
| 2026-05-05 08:13 | 37.22660 | 63.66431 | 35919 ft | 392 kts | 285° |
| 2026-05-05 08:14 | 37.24205 | 63.59891 | 35913 ft | 392 kts | 285° |
| 2026-05-05 08:14 | 37.25728 | 63.53353 | 35912 ft | 391 kts | 285° |
| 2026-05-05 08:15 | 37.27242 | 63.46800 | 35912 ft | 392 kts | 285° |
| 2026-05-05 08:15 | 37.28756 | 63.40230 | 35913 ft | 392 kts | 284° |
| 2026-05-05 08:16 | 37.30254 | 63.33680 | 35912 ft | 392 kts | 284° |
| 2026-05-05 08:16 | 37.31763 | 63.27094 | 35911 ft | 391 kts | 284° |
| 2026-05-05 08:17 | 37.33246 | 63.20555 | 35912 ft | 392 kts | 284° |
| 2026-05-05 08:17 | 37.34734 | 63.13966 | 35911 ft | 392 kts | 284° |
| 2026-05-05 08:18 | 37.36206 | 63.07397 | 35912 ft | 391 kts | 284° |
| 2026-05-05 08:18 | 37.37683 | 63.00857 | 35912 ft | 393 kts | 284° |
| 2026-05-05 08:19 | 37.39167 | 62.94255 | 35911 ft | 394 kts | 284° |
| 2026-05-05 08:19 | 37.40659 | 62.87598 | 35912 ft | 395 kts | 284° |
| 2026-05-05 08:20 | 37.42137 | 62.80970 | 35911 ft | 395 kts | 284° |
| 2026-05-05 08:20 | 37.43615 | 62.74331 | 35912 ft | 395 kts | 284° |
| 2026-05-05 08:21 | 37.45076 | 62.67687 | 35911 ft | 396 kts | 284° |
| 2026-05-05 08:21 | 37.46523 | 62.61039 | 35911 ft | 393 kts | 284° |
| 2026-05-05 08:22 | 37.47980 | 62.54429 | 35912 ft | 394 kts | 284° |
| 2026-05-05 08:22 | 37.49450 | 62.47812 | 35912 ft | 395 kts | 285° |
| 2026-05-05 08:23 | 37.50931 | 62.41157 | 35912 ft | 394 kts | 285° |
| 2026-05-05 08:23 | 37.52371 | 62.34531 | 35912 ft | 393 kts | 284° |
| 2026-05-05 08:24 | 37.53800 | 62.27885 | 35912 ft | 395 kts | 284° |
| 2026-05-05 08:24 | 37.55244 | 62.21230 | 35912 ft | 394 kts | 284° |
| 2026-05-05 08:25 | 37.56697 | 62.14588 | 35912 ft | 395 kts | 284° |
| 2026-05-05 08:25 | 37.58151 | 62.07944 | 35913 ft | 394 kts | 284° |
| 2026-05-05 08:26 | 37.59597 | 62.01294 | 35912 ft | 393 kts | 284° |
| 2026-05-05 08:26 | 37.61028 | 61.94641 | 35912 ft | 394 kts | 284° |
| 2026-05-05 08:27 | 37.62350 | 61.87945 | 35911 ft | 394 kts | 278° |
| 2026-05-05 08:27 | 37.62970 | 61.81113 | 35912 ft | 392 kts | 276° |
| 2026-05-05 08:28 | 37.63652 | 61.74308 | 35912 ft | 394 kts | 277° |
| 2026-05-05 08:28 | 37.64349 | 61.67472 | 35911 ft | 394 kts | 277° |
| 2026-05-05 08:29 | 37.64993 | 61.60636 | 35911 ft | 393 kts | 277° |
| 2026-05-05 08:30 | 37.65985 | 61.50378 | 35912 ft | 393 kts | 277° |
| 2026-05-05 08:30 | 37.66666 | 61.43513 | 35911 ft | 393 kts | 277° |
| 2026-05-05 08:31 | 37.67337 | 61.36666 | 35911 ft | 393 kts | 277° |
| 2026-05-05 08:31 | 37.67991 | 61.29845 | 35913 ft | 393 kts | 277° |
| 2026-05-05 08:32 | 37.68654 | 61.23022 | 35912 ft | 394 kts | 276° |
| 2026-05-05 08:32 | 37.69300 | 61.16166 | 35912 ft | 393 kts | 276° |
| 2026-05-05 08:33 | 37.69946 | 61.09300 | 35912 ft | 395 kts | 277° |
| 2026-05-05 08:33 | 37.70588 | 61.02390 | 35911 ft | 398 kts | 277° |
| 2026-05-05 08:34 | 37.71226 | 60.95482 | 35911 ft | 397 kts | 277° |
| 2026-05-05 08:34 | 37.71860 | 60.88571 | 35912 ft | 399 kts | 277° |
| 2026-05-05 08:35 | 37.72501 | 60.81604 | 35911 ft | 399 kts | 277° |
| 2026-05-05 08:35 | 37.73128 | 60.74656 | 35912 ft | 398 kts | 276° |
| 2026-05-05 08:36 | 37.73753 | 60.67715 | 35912 ft | 399 kts | 277° |
| 2026-05-05 08:36 | 37.74372 | 60.60789 | 35912 ft | 398 kts | 277° |
| 2026-05-05 08:37 | 37.74989 | 60.53863 | 35912 ft | 398 kts | 277° |
| 2026-05-05 08:37 | 37.75777 | 60.46927 | 35911 ft | 399 kts | 279° |
| 2026-05-05 08:37 | 37.76227 | 60.43478 | 35535 ft | 394 kts | 279° |
| 2026-05-05 08:38 | 37.76648 | 60.40090 | 35132 ft | 386 kts | 279° |
| 2026-05-05 08:38 | 37.77045 | 60.36769 | 34691 ft | 381 kts | 279° |
| 2026-05-05 08:38 | 37.77437 | 60.33500 | 34244 ft | 375 kts | 278° |
| 2026-05-05 08:38 | 37.77827 | 60.30279 | 33803 ft | 375 kts | 278° |
| 2026-05-05 08:39 | 37.78223 | 60.27005 | 33350 ft | 379 kts | 278° |
| 2026-05-05 08:39 | 37.78622 | 60.23721 | 32886 ft | 375 kts | 278° |
| 2026-05-05 08:39 | 37.79022 | 60.20492 | 32426 ft | 370 kts | 278° |
| 2026-05-05 08:39 | 37.79425 | 60.17300 | 31968 ft | 366 kts | 278° |
| 2026-05-05 08:40 | 37.79819 | 60.14154 | 31512 ft | 361 kts | 278° |
| 2026-05-05 08:40 | 37.80204 | 60.11036 | 31064 ft | 364 kts | 278° |
| 2026-05-05 08:40 | 37.80589 | 60.07860 | 30595 ft | 366 kts | 278° |
| 2026-05-05 08:40 | 37.80964 | 60.04712 | 30133 ft | 362 kts | 278° |
| 2026-05-05 08:41 | 37.81329 | 60.01615 | 29679 ft | 357 kts | 278° |
| 2026-05-05 08:41 | 37.81690 | 59.98513 | 29222 ft | 353 kts | 278° |
| 2026-05-05 08:41 | 37.82045 | 59.95473 | 28768 ft | 350 kts | 278° |
| 2026-05-05 08:41 | 37.82413 | 59.92430 | 28314 ft | 353 kts | 278° |
| 2026-05-05 08:42 | 37.82791 | 59.89357 | 27847 ft | 353 kts | 278° |
| 2026-05-05 08:42 | 37.83158 | 59.86331 | 27387 ft | 349 kts | 278° |
| 2026-05-05 08:42 | 37.83524 | 59.83296 | 26930 ft | 345 kts | 278° |
| 2026-05-05 08:42 | 37.83875 | 59.80354 | 26488 ft | 341 kts | 277° |
| 2026-05-05 08:43 | 37.84221 | 59.77393 | 26047 ft | 340 kts | 277° |
| 2026-05-05 08:43 | 37.84567 | 59.74405 | 25601 ft | 344 kts | 277° |
| 2026-05-05 08:43 | 37.84915 | 59.71429 | 25157 ft | 340 kts | 277° |
| 2026-05-05 08:43 | 37.85257 | 59.68504 | 24727 ft | 336 kts | 277° |
| 2026-05-05 08:44 | 37.85595 | 59.65609 | 24300 ft | 332 kts | 277° |
| 2026-05-05 08:44 | 37.85929 | 59.62741 | 23879 ft | 330 kts | 277° |
| 2026-05-05 08:44 | 37.86263 | 59.59865 | 23460 ft | 336 kts | 277° |
| 2026-05-05 08:44 | 37.86601 | 59.56960 | 23024 ft | 332 kts | 277° |
| 2026-05-05 08:45 | 37.86936 | 59.54071 | 22597 ft | 328 kts | 277° |
| 2026-05-05 08:45 | 37.87265 | 59.51223 | 22176 ft | 325 kts | 277° |
| 2026-05-05 08:45 | 37.87586 | 59.48449 | 21767 ft | 321 kts | 277° |
| 2026-05-05 08:45 | 37.87909 | 59.45642 | 21358 ft | 327 kts | 277° |
| 2026-05-05 08:46 | 37.88239 | 59.42773 | 20926 ft | 325 kts | 277° |
| 2026-05-05 08:46 | 37.88560 | 59.39976 | 20506 ft | 322 kts | 277° |
| 2026-05-05 08:46 | 37.88879 | 59.37193 | 20093 ft | 318 kts | 277° |
| 2026-05-05 08:46 | 37.89243 | 59.34456 | 19694 ft | 314 kts | 281° |
| 2026-05-05 08:47 | 37.89816 | 59.31800 | 19294 ft | 318 kts | 285° |
| 2026-05-05 08:47 | 37.90443 | 59.29091 | 18869 ft | 319 kts | 284° |
| 2026-05-05 08:47 | 37.91032 | 59.26409 | 18457 ft | 315 kts | 283° |
| 2026-05-05 08:47 | 37.91617 | 59.23739 | 18047 ft | 312 kts | 284° |
| 2026-05-05 08:48 | 37.92194 | 59.21135 | 17648 ft | 309 kts | 284° |
| 2026-05-05 08:48 | 37.92772 | 59.18515 | 17248 ft | 307 kts | 284° |
| 2026-05-05 08:48 | 37.93342 | 59.15924 | 16855 ft | 312 kts | 284° |
| 2026-05-05 08:48 | 37.93926 | 59.13274 | 16441 ft | 309 kts | 284° |
| 2026-05-05 08:49 | 37.94494 | 59.10694 | 16044 ft | 306 kts | 284° |
| 2026-05-05 08:49 | 37.95066 | 59.08091 | 15643 ft | 303 kts | 284° |
| 2026-05-05 08:49 | 37.95623 | 59.05550 | 15252 ft | 300 kts | 284° |
| 2026-05-05 08:49 | 37.96178 | 59.03019 | 14867 ft | 302 kts | 284° |
| 2026-05-05 08:50 | 37.96742 | 59.00446 | 14464 ft | 304 kts | 284° |
| 2026-05-05 08:50 | 37.97304 | 58.97873 | 14066 ft | 301 kts | 284° |
| 2026-05-05 08:50 | 37.97860 | 58.95333 | 13672 ft | 298 kts | 284° |
| 2026-05-05 08:50 | 37.98411 | 58.92808 | 13282 ft | 295 kts | 284° |
| 2026-05-05 08:51 | 37.98952 | 58.90325 | 12897 ft | 292 kts | 284° |
| 2026-05-05 08:51 | 37.99485 | 58.87875 | 12522 ft | 296 kts | 284° |
| 2026-05-05 08:51 | 38.00035 | 58.85346 | 12124 ft | 296 kts | 284° |
| 2026-05-05 08:51 | 38.00581 | 58.82834 | 11733 ft | 293 kts | 283° |
| 2026-05-05 08:52 | 38.01116 | 58.80371 | 11350 ft | 290 kts | 283° |
| 2026-05-05 08:52 | 38.01645 | 58.77932 | 10971 ft | 288 kts | 283° |
| 2026-05-05 08:52 | 38.02173 | 58.75493 | 10601 ft | 291 kts | 283° |
| 2026-05-05 08:52 | 38.02707 | 58.73023 | 10330 ft | 290 kts | 283° |
| 2026-05-05 08:53 | 38.03236 | 58.70581 | 10135 ft | 280 kts | 283° |
| 2026-05-05 08:53 | 38.03743 | 58.68236 | 9971 ft | 271 kts | 283° |
| 2026-05-05 08:53 | 38.04231 | 58.65968 | 9640 ft | 269 kts | 283° |
| 2026-05-05 08:53 | 38.04721 | 58.63691 | 9317 ft | 266 kts | 283° |
| 2026-05-05 08:54 | 38.05204 | 58.61445 | 8999 ft | 264 kts | 283° |
| 2026-05-05 08:54 | 38.05688 | 58.59195 | 8681 ft | 261 kts | 283° |
| 2026-05-05 08:54 | 38.06163 | 58.56984 | 8368 ft | 260 kts | 283° |
| 2026-05-05 08:54 | 38.06643 | 58.54739 | 8055 ft | 266 kts | 283° |
| 2026-05-05 08:55 | 38.07122 | 58.52505 | 7734 ft | 263 kts | 283° |
| 2026-05-05 08:55 | 38.07599 | 58.50283 | 7417 ft | 261 kts | 283° |
| 2026-05-05 08:55 | 38.08073 | 58.48061 | 7101 ft | 261 kts | 283° |
| 2026-05-05 08:55 | 38.08559 | 58.45786 | 6787 ft | 267 kts | 283° |
| 2026-05-05 08:56 | 38.09032 | 58.43517 | 6434 ft | 266 kts | 281° |
| 2026-05-05 08:56 | 38.09379 | 58.41225 | 6093 ft | 264 kts | 277° |
| 2026-05-05 08:56 | 38.09667 | 58.38920 | 5771 ft | 262 kts | 277° |
| 2026-05-05 08:56 | 38.09967 | 58.36693 | 5483 ft | 257 kts | 278° |
| 2026-05-05 08:57 | 38.10272 | 58.34454 | 5153 ft | 251 kts | 277° |
| 2026-05-05 08:57 | 38.10562 | 58.32290 | 4853 ft | 245 kts | 277° |
| 2026-05-05 08:57 | 38.10847 | 58.30186 | 4569 ft | 239 kts | 278° |
| 2026-05-05 08:57 | 38.11127 | 58.28128 | 4287 ft | 234 kts | 277° |
| 2026-05-05 08:58 | 38.11399 | 58.26113 | 4011 ft | 228 kts | 277° |
| 2026-05-05 08:58 | 38.11665 | 58.24155 | 3757 ft | 222 kts | 278° |
| 2026-05-05 08:58 | 38.11919 | 58.22257 | 3592 ft | 216 kts | 275° |
| 2026-05-05 08:58 | 38.11820 | 58.20414 | 3369 ft | 207 kts | 243° |
| 2026-05-05 08:59 | 38.10965 | 58.18957 | 3220 ft | 201 kts | 217° |
| 2026-05-05 08:59 | 38.09801 | 58.18155 | 3022 ft | 182 kts | 190° |
| 2026-05-05 08:59 | 38.08594 | 58.18117 | 2904 ft | 172 kts | 169° |
| 2026-05-05 08:59 | 38.07410 | 58.18373 | 2726 ft | 176 kts | 168° |
| 2026-05-05 09:00 | 38.06194 | 58.18625 | 2567 ft | 175 kts | 164° |
| 2026-05-05 09:00 | 38.05223 | 58.19425 | 2491 ft | 168 kts | 120° |
| 2026-05-05 09:00 | 38.04754 | 58.20746 | 2497 ft | 166 kts | 116° |
| 2026-05-05 09:00 | 38.04169 | 58.21989 | 2512 ft | 162 kts | 120° |
| 2026-05-05 09:01 | 38.03605 | 58.23230 | 2490 ft | 162 kts | 120° |
| 2026-05-05 09:01 | 38.03044 | 58.24482 | 2344 ft | 166 kts | 120° |
| 2026-05-05 09:01 | 38.02489 | 58.25731 | 2114 ft | 162 kts | 121° |
| 2026-05-05 09:01 | 38.01942 | 58.26954 | 1918 ft | 159 kts | 118° |
| 2026-05-05 09:02 | 38.01407 | 58.28160 | 1685 ft | 153 kts | 117° |
| 2026-05-05 09:02 | 38.00893 | 58.29321 | 1495 ft | 151 kts | 117° |
| 2026-05-05 09:02 | 38.00382 | 58.30489 | 1260 ft | 151 kts | 117° |
| 2026-05-05 09:02 | 37.99876 | 58.31634 | 1055 ft | 149 kts | 118° |
| 2026-05-05 09:03 | 37.99358 | 58.32775 | 860 ft | 149 kts | 120° |
| 2026-05-05 09:03 | 37.98838 | 58.33931 | 708 ft | 149 kts | 117° |
| 2026-05-05 09:03 | 37.98411 | 58.34903 | 699 ft | 95 kts | 119° |
| 2026-05-05 09:03 | 37.98172 | 58.35428 | 699 ft | 57 kts | 119° |
| 2026-05-05 09:04 | 37.97987 | 58.35840 | 699 ft | 49 kts | 119° |
| 2026-05-05 09:04 | 37.97824 | 58.36202 | 699 ft | 45 kts | 119° |
| 2026-05-05 09:04 | 37.97683 | 58.36520 | 699 ft | 27 kts | 119° |
| 2026-05-05 09:04 | 37.97569 | 58.36575 | 699 ft | 16 kts | 207° |
| 2026-05-05 09:05 | 37.97466 | 58.36535 | 699 ft | 18 kts | 168° |
| 2026-05-05 09:05 | 37.97332 | 58.36627 | 699 ft | 25 kts | 149° |
| 2026-05-05 09:05 | 37.97161 | 58.36753 | 699 ft | 31 kts | 150° |
| 2026-05-05 09:05 | 37.96960 | 58.36896 | 699 ft | 32 kts | 150° |
| 2026-05-05 09:06 | 37.96811 | 58.37056 | 699 ft | 25 kts | 128° |
| 2026-05-05 09:06 | 37.96724 | 58.37195 | 699 ft | 11 kts | 115° |
| 2026-05-05 09:06 | 37.96754 | 58.37260 | 699 ft | 4 kts | 52° |
| 2026-05-05 09:06 | 37.96753 | 58.37283 | 699 ft | 3 kts | 121° |
| 2026-05-05 09:07 | 37.96735 | 58.37315 | 699 ft | 5 kts | 125° |
| 2026-05-05 09:07 | 37.96720 | 58.37338 | 699 ft | 0 kts | 127° |